createdAt,value
2016-03-15T00:00:23.108Z,1022.84
2016-03-15T00:01:23.156Z,1022.86
2016-03-15T00:02:23.206Z,1022.83
2016-03-15T00:03:23.255Z,1022.8
2016-03-15T00:04:23.322Z,1022.81
2016-03-15T00:05:23.355Z,1022.85
2016-03-15T00:06:23.420Z,1022.83
2016-03-15T00:07:23.459Z,1022.83
2016-03-15T00:08:23.508Z,1022.8
2016-03-15T00:09:23.558Z,1022.8
2016-03-15T00:10:23.607Z,1022.83
2016-03-15T00:11:23.674Z,1022.84
2016-03-15T00:12:23.723Z,1022.81
2016-03-15T00:13:23.772Z,1022.82
2016-03-15T00:14:23.821Z,1022.83
2016-03-15T00:15:23.871Z,1022.8
2016-03-15T00:16:23.921Z,1022.77
2016-03-15T00:17:23.971Z,1022.79
2016-03-15T00:18:24.020Z,1022.76
2016-03-15T00:19:24.070Z,1022.75
2016-03-15T00:20:24.119Z,1022.7
2016-03-15T00:21:24.168Z,1022.74
2016-03-15T00:22:24.234Z,1022.71
2016-03-15T00:23:24.283Z,1022.71
2016-03-15T00:24:24.334Z,1022.69
2016-03-15T00:25:24.383Z,1022.73
2016-03-15T00:26:24.431Z,1022.72
2016-03-15T00:27:24.481Z,1022.76
2016-03-15T00:28:24.531Z,1022.76
2016-03-15T00:29:24.581Z,1022.78
2016-03-15T00:30:24.631Z,1022.72
2016-03-15T00:31:24.680Z,1022.72
2016-03-15T00:32:24.745Z,1022.7
2016-03-15T00:33:24.780Z,1022.69
2016-03-15T00:34:24.828Z,1022.71
2016-03-15T00:35:24.895Z,1022.7
2016-03-15T00:36:24.945Z,1022.7
2016-03-15T00:37:24.994Z,1022.68
2016-03-15T00:38:25.043Z,1022.67
2016-03-15T00:39:25.092Z,1022.67
2016-03-15T00:40:25.158Z,1022.66
2016-03-15T00:41:25.192Z,1022.67
2016-03-15T00:42:25.242Z,1022.67
2016-03-15T00:43:25.292Z,1022.67
2016-03-15T00:44:25.341Z,1022.61
2016-03-15T00:45:25.391Z,1022.66
2016-03-15T00:46:25.439Z,1022.56
2016-03-15T00:47:25.505Z,1022.6
2016-03-15T00:48:25.554Z,1022.59
2016-03-15T00:49:25.589Z,1022.59
2016-03-15T00:50:25.655Z,1022.58
2016-03-15T00:51:25.703Z,1022.57
2016-03-15T00:52:25.753Z,1022.57
2016-03-15T00:53:25.802Z,1022.58
2016-03-15T00:54:25.852Z,1022.56
2016-03-15T00:55:25.902Z,1022.61
2016-03-15T00:56:25.957Z,1022.61
2016-03-15T00:57:26.006Z,1022.62
2016-03-15T00:58:26.071Z,1022.63
2016-03-15T00:59:26.104Z,1022.59
2016-03-15T01:00:26.170Z,1022.65
2016-03-15T01:01:26.219Z,1022.66
2016-03-15T01:02:26.270Z,1022.66
2016-03-15T01:03:26.319Z,1022.65
2016-03-15T01:04:26.368Z,1022.64
2016-03-15T01:05:26.417Z,1022.62
2016-03-15T01:06:26.467Z,1022.61
2016-03-15T01:07:26.533Z,1022.62
2016-03-15T01:08:26.567Z,1022.66
2016-03-15T01:09:26.616Z,1022.66
2016-03-15T01:10:26.681Z,1022.64
2016-03-15T01:11:26.716Z,1022.62
2016-03-15T01:12:26.764Z,1022.65
2016-03-15T01:13:26.846Z,1022.66
2016-03-15T01:14:26.880Z,1022.64
2016-03-15T01:15:26.929Z,1022.66
2016-03-15T01:16:26.979Z,1022.63
2016-03-15T01:17:27.028Z,1022.61
2016-03-15T01:18:27.077Z,1022.62
2016-03-15T01:19:27.127Z,1022.58
2016-03-15T01:20:27.177Z,1022.58
2016-03-15T01:21:27.227Z,1022.6
2016-03-15T01:22:27.276Z,1022.58
2016-03-15T01:23:27.326Z,1022.55
2016-03-15T01:24:27.376Z,1022.51
2016-03-15T01:25:27.471Z,1022.52
2016-03-15T01:26:27.474Z,1022.51
2016-03-15T01:27:27.524Z,1022.48
2016-03-15T01:28:27.573Z,1022.47
2016-03-15T01:29:27.623Z,1022.42
2016-03-15T01:30:27.688Z,1022.41
2016-03-15T01:31:27.737Z,1022.45
2016-03-15T01:32:27.787Z,1022.45
2016-03-15T01:33:27.837Z,1022.5
2016-03-15T01:34:27.886Z,1022.52
2016-03-15T01:35:27.937Z,1022.48
2016-03-15T01:36:27.986Z,1022.49
2016-03-15T01:37:28.035Z,1022.48
2016-03-15T01:38:28.085Z,1022.5
2016-03-15T01:39:28.134Z,1022.49
2016-03-15T01:40:28.183Z,1022.49
2016-03-15T01:41:28.234Z,1022.48
2016-03-15T01:42:28.283Z,1022.47
2016-03-15T01:43:28.333Z,1022.45
2016-03-15T01:44:28.397Z,1022.44
2016-03-15T01:45:28.432Z,1022.43
2016-03-15T01:46:28.496Z,1022.4
2016-03-15T01:47:28.547Z,1022.39
2016-03-15T01:48:28.596Z,1022.4
2016-03-15T01:49:28.645Z,1022.37
2016-03-15T01:50:28.696Z,1022.4
2016-03-15T01:51:28.744Z,1022.38
2016-03-15T01:52:28.794Z,1022.38
2016-03-15T01:53:28.844Z,1022.35
2016-03-15T01:54:28.893Z,1022.38
2016-03-15T01:55:28.943Z,1022.36
2016-03-15T01:56:28.993Z,1022.35
2016-03-15T01:57:29.057Z,1022.31
2016-03-15T01:58:29.107Z,1022.32
2016-03-15T01:59:29.157Z,1022.3
2016-03-15T02:00:29.223Z,1022.28
2016-03-15T02:01:29.256Z,1022.31
2016-03-15T02:02:29.305Z,1022.29
2016-03-15T02:03:29.356Z,1022.28
2016-03-15T02:04:29.404Z,1022.32
2016-03-15T02:05:29.454Z,1022.28
2016-03-15T02:06:29.503Z,1022.27
2016-03-15T02:07:29.553Z,1022.29
2016-03-15T02:08:29.603Z,1022.25
2016-03-15T02:09:29.668Z,1022.21
2016-03-15T02:10:29.702Z,1022.22
2016-03-15T02:11:29.767Z,1022.21
2016-03-15T02:12:29.817Z,1022.24
2016-03-15T02:13:29.866Z,1022.21
2016-03-15T02:14:29.916Z,1022.23
2016-03-15T02:15:29.966Z,1022.19
2016-03-15T02:16:30.015Z,1022.15
2016-03-15T02:17:30.064Z,1022.18
2016-03-15T02:18:30.114Z,1022.1
2016-03-15T02:19:30.164Z,1022.13
2016-03-15T02:20:30.214Z,1022.15
2016-03-15T02:21:30.263Z,1022.16
2016-03-15T02:22:30.328Z,1022.14
2016-03-15T02:23:30.377Z,1022.13
2016-03-15T02:24:30.427Z,1022.11
2016-03-15T02:25:30.477Z,1022.09
2016-03-15T02:26:30.526Z,1022.11
2016-03-15T02:27:30.576Z,1022.16
2016-03-15T02:28:30.625Z,1022.14
2016-03-15T02:29:30.675Z,1022.17
2016-03-15T02:30:30.724Z,1022.13
2016-03-15T02:31:30.773Z,1022.13
2016-03-15T02:32:30.823Z,1022.14
2016-03-15T02:33:30.889Z,1022.16
2016-03-15T02:34:30.939Z,1022.14
2016-03-15T02:35:30.988Z,1022.14
2016-03-15T02:36:31.038Z,1022.13
2016-03-15T02:37:31.087Z,1022.14
2016-03-15T02:38:31.137Z,1022.12
2016-03-15T02:39:31.186Z,1022.1
2016-03-15T02:40:31.236Z,1022.05
2016-03-15T02:41:31.285Z,1022.04
2016-03-15T02:42:31.335Z,1022.04
2016-03-15T02:43:31.384Z,1022.12
2016-03-15T02:44:31.433Z,1022.14
2016-03-15T02:45:31.484Z,1022.14
2016-03-15T02:46:31.549Z,1022.2
2016-03-15T02:47:31.599Z,1022.17
2016-03-15T02:48:31.648Z,1022.14
2016-03-15T02:49:31.697Z,1022.15
2016-03-15T02:50:31.747Z,1022.14
2016-03-15T02:51:31.796Z,1022.06
2016-03-15T02:52:31.846Z,1022.06
2016-03-15T02:53:31.896Z,1022.03
2016-03-15T02:54:31.946Z,1022.03
2016-03-15T02:55:31.996Z,1022.03
2016-03-15T02:56:32.060Z,1021.98
2016-03-15T02:57:32.094Z,1021.97
2016-03-15T02:58:32.159Z,1021.95
2016-03-15T02:59:32.193Z,1021.97
2016-03-15T03:00:32.259Z,1021.93
2016-03-15T03:01:32.307Z,1021.94
2016-03-15T03:02:32.357Z,1021.92
2016-03-15T03:03:32.406Z,1021.91
2016-03-15T03:04:32.456Z,1021.92
2016-03-15T03:05:32.506Z,1021.92
2016-03-15T03:06:32.556Z,1021.92
2016-03-15T03:07:32.605Z,1021.88
2016-03-15T03:08:32.656Z,1021.85
2016-03-15T03:09:32.720Z,1021.88
2016-03-15T03:10:32.754Z,1021.82
2016-03-15T03:11:32.819Z,1021.84
2016-03-15T03:12:32.869Z,1021.81
2016-03-15T03:13:32.919Z,1021.8
2016-03-15T03:14:32.967Z,1021.81
2016-03-15T03:15:33.017Z,1021.83
2016-03-15T03:16:33.066Z,1021.8
2016-03-15T03:17:33.116Z,1021.81
2016-03-15T03:18:33.166Z,1021.8
2016-03-15T03:19:33.215Z,1021.77
2016-03-15T03:20:33.266Z,1021.8
2016-03-15T03:21:33.331Z,1021.8
2016-03-15T03:22:33.364Z,1021.8
2016-03-15T03:23:33.430Z,1021.8
2016-03-15T03:24:33.480Z,1021.8
2016-03-15T03:25:33.529Z,1021.84
2016-03-15T03:26:33.579Z,1021.83
2016-03-15T03:27:33.627Z,1021.87
2016-03-15T03:28:33.677Z,1021.85
2016-03-15T03:29:33.727Z,1021.82
2016-03-15T03:30:33.777Z,1021.82
2016-03-15T03:31:33.826Z,1021.81
2016-03-15T03:32:33.875Z,1021.81
2016-03-15T03:33:33.941Z,1021.79
2016-03-15T03:34:33.990Z,1021.78
2016-03-15T03:35:34.040Z,1021.75
2016-03-15T03:36:34.074Z,1021.72
2016-03-15T03:37:34.139Z,1021.71
2016-03-15T03:38:34.189Z,1021.73
2016-03-15T03:39:34.239Z,1021.71
2016-03-15T03:40:34.287Z,1021.64
2016-03-15T03:41:34.337Z,1021.69
2016-03-15T03:42:34.386Z,1021.64
2016-03-15T03:43:34.436Z,1021.59
2016-03-15T03:44:34.502Z,1021.57
2016-03-15T03:45:34.551Z,1021.6
2016-03-15T03:46:34.600Z,1021.56
2016-03-15T03:47:34.635Z,1021.58
2016-03-15T03:48:34.684Z,1021.54
2016-03-15T03:49:34.749Z,1021.55
2016-03-15T03:50:34.799Z,1021.52
2016-03-15T03:51:34.849Z,1021.5
2016-03-15T03:52:34.899Z,1021.52
2016-03-15T03:53:34.947Z,1021.55
2016-03-15T03:54:34.997Z,1021.56
2016-03-15T03:55:35.046Z,1021.56
2016-03-15T03:56:35.113Z,1021.63
2016-03-15T03:57:35.146Z,1021.61
2016-03-15T03:58:35.210Z,1021.65
2016-03-15T03:59:35.246Z,1021.64
2016-03-15T04:00:35.310Z,1021.69
2016-03-15T04:01:35.360Z,1021.72
2016-03-15T04:02:35.410Z,1021.75
2016-03-15T04:03:35.459Z,1021.76
2016-03-15T04:04:35.509Z,1021.79
2016-03-15T04:05:35.558Z,1021.78
2016-03-15T04:06:35.623Z,1021.84
2016-03-15T04:07:35.656Z,1021.86
2016-03-15T04:08:35.707Z,1021.87
2016-03-15T04:09:35.756Z,1021.88
2016-03-15T04:10:35.822Z,1021.87
2016-03-15T04:11:35.856Z,1021.87
2016-03-15T04:12:35.905Z,1021.87
2016-03-15T04:13:35.970Z,1021.86
2016-03-15T04:14:36.020Z,1021.83
2016-03-15T04:15:36.069Z,1021.84
2016-03-15T04:16:36.150Z,1021.87
2016-03-15T04:17:36.169Z,1021.83
2016-03-15T04:18:36.218Z,1021.86
2016-03-15T04:19:36.284Z,1021.87
2016-03-15T04:20:36.333Z,1021.86
2016-03-15T04:21:36.371Z,1021.84
2016-03-15T04:22:36.421Z,1021.86
2016-03-15T04:23:36.471Z,1021.85
2016-03-15T04:24:36.521Z,1021.77
2016-03-15T04:25:36.585Z,1021.8
2016-03-15T04:26:36.635Z,1021.79
2016-03-15T04:27:36.684Z,1021.79
2016-03-15T04:28:36.735Z,1021.78
2016-03-15T04:29:36.784Z,1021.76
2016-03-15T04:30:36.833Z,1021.75
2016-03-15T04:31:36.883Z,1021.81
2016-03-15T04:32:36.932Z,1021.85
2016-03-15T04:33:36.982Z,1021.86
2016-03-15T04:34:37.032Z,1021.95
2016-03-15T04:35:37.085Z,1021.92
2016-03-15T04:36:37.134Z,1021.96
2016-03-15T04:37:37.200Z,1021.9
2016-03-15T04:38:37.249Z,1021.9
2016-03-15T04:39:37.299Z,1021.9
2016-03-15T04:40:37.333Z,1021.97
2016-03-15T04:41:37.398Z,1022.01
2016-03-15T04:42:37.448Z,1022.02
2016-03-15T04:43:37.497Z,1022.02
2016-03-15T04:44:37.546Z,1022
2016-03-15T04:45:37.596Z,1022.04
2016-03-15T04:46:37.646Z,1022.06
2016-03-15T04:47:37.695Z,1022.03
2016-03-15T04:48:37.746Z,1022.05
2016-03-15T04:49:37.810Z,1022.03
2016-03-15T04:50:37.859Z,1022.01
2016-03-15T04:51:37.894Z,1022.05
2016-03-15T04:52:37.943Z,1022.04
2016-03-15T04:53:38.008Z,1022.02
2016-03-15T04:54:38.058Z,1022.05
2016-03-15T04:55:38.092Z,1022.06
2016-03-15T04:56:38.156Z,1022.03
2016-03-15T04:57:38.207Z,1022.09
2016-03-15T04:58:38.256Z,1022.02
2016-03-15T04:59:38.305Z,1022.06
2016-03-15T05:00:38.356Z,1022.05
2016-03-15T05:01:38.405Z,1022.07
2016-03-15T05:02:38.454Z,1022.05
2016-03-15T05:03:38.505Z,1022.03
2016-03-15T05:04:38.553Z,1022.06
2016-03-15T05:05:38.619Z,1022.06
2016-03-15T05:06:38.653Z,1022.09
2016-03-15T05:07:38.718Z,1022.06
2016-03-15T05:08:38.768Z,1022.09
2016-03-15T05:09:38.802Z,1022.11
2016-03-15T05:10:38.866Z,1022.11
2016-03-15T05:11:38.916Z,1022.15
2016-03-15T05:12:38.966Z,1022.19
2016-03-15T05:13:39.015Z,1022.1
2016-03-15T05:14:39.065Z,1022.15
2016-03-15T05:15:39.115Z,1022.12
2016-03-15T05:16:39.164Z,1022.15
2016-03-15T05:17:39.213Z,1022.11
2016-03-15T05:18:39.279Z,1022.08
2016-03-15T05:19:39.328Z,1022.09
2016-03-15T05:20:39.362Z,1022.05
2016-03-15T05:21:39.412Z,1022.02
2016-03-15T05:22:39.476Z,1022.02
2016-03-15T05:23:39.512Z,1021.93
2016-03-15T05:24:39.576Z,1021.99
2016-03-15T05:25:39.625Z,1021.95
2016-03-15T05:26:39.676Z,1021.99
2016-03-15T05:27:39.725Z,1021.97
2016-03-15T05:28:39.775Z,1021.98
2016-03-15T05:29:39.824Z,1022.03
2016-03-15T05:30:39.873Z,1022.02
2016-03-15T05:31:39.923Z,1022.06
2016-03-15T05:32:39.973Z,1022.07
2016-03-15T05:33:40.038Z,1022.05
2016-03-15T05:34:40.072Z,1021.99
2016-03-15T05:35:40.122Z,1021.94
2016-03-15T05:36:40.186Z,1021.94
2016-03-15T05:37:40.252Z,1021.89
2016-03-15T05:38:40.285Z,1021.86
2016-03-15T05:39:40.335Z,1021.85
2016-03-15T05:40:40.385Z,1021.87
2016-03-15T05:41:40.435Z,1021.86
2016-03-15T05:42:40.484Z,1021.88
2016-03-15T05:43:40.533Z,1021.9
2016-03-15T05:44:40.583Z,1021.84
2016-03-15T05:45:40.648Z,1021.81
2016-03-15T05:46:40.682Z,1021.79
2016-03-15T05:47:40.747Z,1021.77
2016-03-15T05:48:40.797Z,1021.75
2016-03-15T05:49:40.831Z,1021.69
2016-03-15T05:50:40.896Z,1021.74
2016-03-15T05:51:40.946Z,1021.76
2016-03-15T05:52:40.995Z,1021.78
2016-03-15T05:53:41.045Z,1021.76
2016-03-15T05:54:41.095Z,1021.78
2016-03-15T05:55:41.144Z,1021.76
2016-03-15T05:56:41.193Z,1021.76
2016-03-15T05:57:41.243Z,1021.75
2016-03-15T05:58:41.292Z,1021.78
2016-03-15T05:59:41.342Z,1021.8
2016-03-15T06:00:41.408Z,1021.82
2016-03-15T06:01:41.456Z,1021.83
2016-03-15T06:02:41.506Z,1021.78
2016-03-15T06:03:41.556Z,1021.79
2016-03-15T06:04:41.605Z,1021.75
2016-03-15T06:05:41.655Z,1021.76
2016-03-15T06:06:41.699Z,1021.76
2016-03-15T06:07:41.733Z,1021.81
2016-03-15T06:08:41.768Z,1021.83
2016-03-15T06:09:41.801Z,1021.78
2016-03-15T06:10:41.835Z,1021.71
2016-03-15T06:11:41.874Z,1021.66
2016-03-15T06:12:41.934Z,1021.66
2016-03-15T06:13:41.962Z,1021.71
2016-03-15T06:14:42.021Z,1021.74
2016-03-15T06:15:42.065Z,1021.7
2016-03-15T06:16:42.097Z,1021.67
2016-03-15T06:17:42.159Z,1021.67
2016-03-15T06:18:42.206Z,1021.7
2016-03-15T06:19:42.253Z,1021.71
2016-03-15T06:20:42.301Z,1021.7
2016-03-15T06:21:42.349Z,1021.71
2016-03-15T06:22:42.396Z,1021.69
2016-03-15T06:23:42.478Z,1021.68
2016-03-15T06:24:42.494Z,1021.68
2016-03-15T06:25:42.543Z,1021.68
2016-03-15T06:26:42.609Z,1021.67
2016-03-15T06:27:42.642Z,1021.69
2016-03-15T06:28:42.707Z,1021.75
2016-03-15T06:29:42.757Z,1021.84
2016-03-15T06:30:42.806Z,1021.97
2016-03-15T06:31:42.856Z,1022
2016-03-15T06:32:42.921Z,1022.04
2016-03-15T06:33:42.955Z,1022.07
2016-03-15T06:34:43.006Z,1022.08
2016-03-15T06:35:43.054Z,1022.14
2016-03-15T06:36:43.104Z,1022.11
2016-03-15T06:37:43.169Z,1022.13
2016-03-15T06:38:43.219Z,1022.12
2016-03-15T06:39:43.252Z,1022.11
2016-03-15T06:40:43.317Z,1022.21
2016-03-15T06:41:43.367Z,1022.1
2016-03-15T06:42:43.416Z,1022.04
2016-03-15T06:43:43.467Z,1021.99
2016-03-15T06:44:43.516Z,1021.97
2016-03-15T06:45:43.566Z,1021.92
2016-03-15T06:46:43.615Z,1021.84
2016-03-15T06:47:43.665Z,1021.82
2016-03-15T06:48:43.714Z,1021.84
2016-03-15T06:49:43.779Z,1021.83
2016-03-15T06:50:43.813Z,1021.82
2016-03-15T06:51:43.878Z,1021.8
2016-03-15T06:52:43.928Z,1021.79
2016-03-15T06:53:43.962Z,1021.75
2016-03-15T06:54:44.027Z,1021.74
2016-03-15T06:55:44.076Z,1021.77
2016-03-15T06:56:44.126Z,1021.73
2016-03-15T06:57:44.176Z,1021.7
2016-03-15T06:58:44.225Z,1021.63
2016-03-15T06:59:44.290Z,1021.66
2016-03-15T07:00:44.325Z,1021.7
2016-03-15T07:01:44.374Z,1021.76
2016-03-15T07:02:44.440Z,1021.73
2016-03-15T07:03:44.489Z,1021.73
2016-03-15T07:04:44.523Z,1021.76
2016-03-15T07:05:44.589Z,1021.74
2016-03-15T07:06:44.637Z,1021.75
2016-03-15T07:07:44.707Z,1021.72
2016-03-15T07:08:44.757Z,1021.69
2016-03-15T07:09:44.790Z,1021.69
2016-03-15T07:10:44.840Z,1021.71
2016-03-15T07:11:44.890Z,1021.73
2016-03-15T07:12:44.939Z,1021.76
2016-03-15T07:13:44.988Z,1021.78
2016-03-15T07:14:45.038Z,1021.83
2016-03-15T07:15:45.088Z,1021.77
2016-03-15T07:16:45.137Z,1021.69
2016-03-15T07:17:45.203Z,1021.6
2016-03-15T07:18:45.237Z,1021.66
2016-03-15T07:19:45.286Z,1021.72
2016-03-15T07:20:45.351Z,1021.7
2016-03-15T07:21:45.447Z,1021.71
2016-03-15T07:22:45.450Z,1021.65
2016-03-15T07:23:45.515Z,1021.64
2016-03-15T07:24:45.550Z,1021.61
2016-03-15T07:25:45.599Z,1021.56
2016-03-15T07:26:45.648Z,1021.53
2016-03-15T07:27:45.698Z,1021.5
2016-03-15T07:28:45.763Z,1021.56
2016-03-15T07:29:45.797Z,1021.56
2016-03-15T07:30:45.847Z,1021.52
2016-03-15T07:31:45.911Z,1021.5
2016-03-15T07:32:45.961Z,1021.44
2016-03-15T07:33:45.996Z,1021.43
2016-03-15T07:34:46.060Z,1021.44
2016-03-15T07:35:46.111Z,1021.52
2016-03-15T07:36:46.160Z,1021.57
2016-03-15T07:37:46.209Z,1021.5
2016-03-15T07:38:46.275Z,1021.51
2016-03-15T07:39:46.308Z,1021.44
2016-03-15T07:40:46.357Z,1021.45
2016-03-15T07:41:46.423Z,1021.41
2016-03-15T07:42:46.457Z,1021.42
2016-03-15T07:43:46.506Z,1021.39
2016-03-15T07:44:46.572Z,1021.41
2016-03-15T07:45:46.621Z,1021.45
2016-03-15T07:46:46.655Z,1021.49
2016-03-15T07:47:46.721Z,1021.5
2016-03-15T07:48:46.770Z,1021.5
2016-03-15T07:49:46.820Z,1021.46
2016-03-15T07:50:46.869Z,1021.43
2016-03-15T07:51:46.919Z,1021.42
2016-03-15T07:52:46.984Z,1021.42
2016-03-15T07:53:47.065Z,1021.42
2016-03-15T07:54:47.067Z,1021.44
2016-03-15T07:55:47.133Z,1021.52
2016-03-15T07:56:47.182Z,1021.53
2016-03-15T07:57:47.216Z,1021.55
2016-03-15T07:58:47.281Z,1021.54
2016-03-15T07:59:47.330Z,1021.56
2016-03-15T08:00:47.381Z,1021.56
2016-03-15T08:01:47.430Z,1021.58
2016-03-15T08:02:47.480Z,1021.56
2016-03-15T08:03:47.529Z,1021.52
2016-03-15T08:04:47.579Z,1021.51
2016-03-15T08:05:47.644Z,1021.48
2016-03-15T08:06:47.693Z,1021.51
2016-03-15T08:07:47.743Z,1021.5
2016-03-15T08:08:47.807Z,1021.45
2016-03-15T08:09:47.827Z,1021.45
2016-03-15T08:10:47.891Z,1021.4
2016-03-15T08:11:47.926Z,1021.34
2016-03-15T08:12:47.976Z,1021.4
2016-03-15T08:13:48.040Z,1021.38
2016-03-15T08:14:48.090Z,1021.44
2016-03-15T08:15:48.140Z,1021.41
2016-03-15T08:16:48.189Z,1021.41
2016-03-15T08:17:48.239Z,1021.4
2016-03-15T08:18:48.304Z,1021.4
2016-03-15T08:19:48.337Z,1021.37
2016-03-15T08:20:48.388Z,1021.42
2016-03-15T08:21:48.453Z,1021.38
2016-03-15T08:22:48.487Z,1021.42
2016-03-15T08:23:48.537Z,1021.43
2016-03-15T08:24:48.601Z,1021.43
2016-03-15T08:25:48.650Z,1021.39
2016-03-15T08:26:48.700Z,1021.4
2016-03-15T08:27:48.750Z,1021.45
2016-03-15T08:28:48.799Z,1021.42
2016-03-15T08:29:48.850Z,1021.44
2016-03-15T08:30:48.899Z,1021.4
2016-03-15T08:31:48.947Z,1021.36
2016-03-15T08:32:49.014Z,1021.34
2016-03-15T08:33:49.063Z,1021.36
2016-03-15T08:34:49.096Z,1021.41
2016-03-15T08:35:49.163Z,1021.41
2016-03-15T08:36:49.211Z,1021.43
2016-03-15T08:37:49.246Z,1021.41
2016-03-15T08:38:49.311Z,1021.35
2016-03-15T08:39:49.360Z,1021.35
2016-03-15T08:40:49.410Z,1021.33
2016-03-15T08:41:49.460Z,1021.31
2016-03-15T08:42:49.509Z,1021.33
2016-03-15T08:43:49.559Z,1021.33
2016-03-15T08:44:49.608Z,1021.3
2016-03-15T08:45:49.673Z,1021.27
2016-03-15T08:46:49.707Z,1021.28
2016-03-15T08:47:49.773Z,1021.23
2016-03-15T08:48:49.807Z,1021.21
2016-03-15T08:49:49.857Z,1021.13
2016-03-15T08:50:49.921Z,1021.14
2016-03-15T08:51:49.955Z,1021.15
2016-03-15T08:52:50.004Z,1021.19
2016-03-15T08:53:50.070Z,1021.28
2016-03-15T08:54:50.119Z,1021.34
2016-03-15T08:55:50.170Z,1021.3
2016-03-15T08:56:50.203Z,1021.3
2016-03-15T08:57:50.267Z,1021.31
2016-03-15T08:58:50.317Z,1021.34
2016-03-15T08:59:50.352Z,1021.35
2016-03-15T09:00:50.417Z,1021.37
2016-03-15T09:01:50.466Z,1021.46
2016-03-15T09:02:50.516Z,1021.45
2016-03-15T09:03:50.566Z,1021.35
2016-03-15T09:04:50.616Z,1021.36
2016-03-15T09:05:50.664Z,1021.35
2016-03-15T09:06:50.714Z,1021.39
2016-03-15T09:07:50.764Z,1021.42
2016-03-15T09:08:50.813Z,1021.35
2016-03-15T09:09:50.862Z,1021.42
2016-03-15T09:10:50.913Z,1021.45
2016-03-15T09:11:50.962Z,1021.47
2016-03-15T09:12:51.027Z,1021.39
2016-03-15T09:13:51.077Z,1021.37
2016-03-15T09:14:51.142Z,1021.45
2016-03-15T09:15:51.176Z,1021.5
2016-03-15T09:16:51.226Z,1021.48
2016-03-15T09:17:51.259Z,1021.4
2016-03-15T09:18:51.324Z,1021.45
2016-03-15T09:19:51.374Z,1021.43
2016-03-15T09:20:51.423Z,1021.41
2016-03-15T09:21:51.458Z,1021.44
2016-03-15T09:22:51.523Z,1021.38
2016-03-15T09:23:51.587Z,1021.4
2016-03-15T09:24:51.623Z,1021.38
2016-03-15T09:25:51.672Z,1021.31
2016-03-15T09:26:51.720Z,1021.34
2016-03-15T09:27:51.770Z,1021.37
2016-03-15T09:28:51.820Z,1021.37
2016-03-15T09:29:51.869Z,1021.36
2016-03-15T09:30:51.920Z,1021.39
2016-03-15T09:31:52.203Z,1021.44
2016-03-15T09:32:52.299Z,1021.44
2016-03-15T09:33:52.365Z,1021.4
2016-03-15T09:34:52.117Z,1021.39
2016-03-15T09:35:52.448Z,1021.42
2016-03-15T09:36:52.233Z,1021.41
2016-03-15T09:37:52.563Z,1021.43
2016-03-15T09:38:52.675Z,1021.44
2016-03-15T09:39:52.725Z,1021.45
2016-03-15T09:40:52.930Z,1021.48
2016-03-15T09:41:52.980Z,1021.55
2016-03-15T09:42:53.046Z,1021.63
2016-03-15T09:43:52.954Z,1021.63
2016-03-15T09:44:52.613Z,1021.64
2016-03-15T09:45:52.678Z,1021.64
2016-03-15T09:46:52.744Z,1021.64
2016-03-15T09:47:52.777Z,1021.65
2016-03-15T09:48:52.826Z,1021.7
2016-03-15T09:49:52.877Z,1021.71
2016-03-15T09:50:52.926Z,1021.74
2016-03-15T09:51:53.006Z,1021.73
2016-03-15T09:52:53.026Z,1021.72
2016-03-15T09:53:53.075Z,1021.68
2016-03-15T09:54:53.140Z,1021.58
2016-03-15T09:55:53.174Z,1021.57
2016-03-15T09:56:53.223Z,1021.55
2016-03-15T09:57:53.289Z,1021.57
2016-03-15T09:58:53.339Z,1021.55
2016-03-15T09:59:53.388Z,1021.54
2016-03-15T10:00:53.437Z,1021.52
2016-03-15T10:01:53.487Z,1021.51
2016-03-15T10:02:53.536Z,1021.53
2016-03-15T10:03:53.586Z,1021.54
2016-03-15T10:04:53.636Z,1021.61
2016-03-15T10:05:53.700Z,1021.59
2016-03-15T10:06:53.735Z,1021.59
2016-03-15T10:07:53.785Z,1021.45
2016-03-15T10:08:53.838Z,1021.53
2016-03-15T10:09:53.888Z,1021.55
2016-03-15T10:10:53.938Z,1021.62
2016-03-15T10:11:53.988Z,1021.62
2016-03-15T10:12:54.037Z,1021.58
2016-03-15T10:13:54.087Z,1021.61
2016-03-15T10:14:54.137Z,1021.57
2016-03-15T10:15:54.185Z,1021.58
2016-03-15T10:16:54.235Z,1021.6
2016-03-15T10:17:54.301Z,1021.56
2016-03-15T10:18:54.334Z,1021.53
2016-03-15T10:19:54.415Z,1021.52
2016-03-15T10:20:54.449Z,1021.49
2016-03-15T10:21:54.483Z,1021.53
2016-03-15T10:22:54.548Z,1021.53
2016-03-15T10:23:54.598Z,1021.57
2016-03-15T10:24:54.648Z,1021.58
2016-03-15T10:25:54.697Z,1021.56
2016-03-15T10:26:54.747Z,1021.55
2016-03-15T10:27:54.797Z,1021.53
2016-03-15T10:28:54.845Z,1021.5
2016-03-15T10:29:54.895Z,1021.43
2016-03-15T10:30:54.961Z,1021.36
2016-03-15T10:31:55.010Z,1021.37
2016-03-15T10:32:55.060Z,1021.35
2016-03-15T10:33:55.094Z,1021.36
2016-03-15T10:34:55.158Z,1021.3
2016-03-15T10:35:55.193Z,1021.28
2016-03-15T10:36:55.258Z,1021.28
2016-03-15T10:37:55.323Z,1021.25
2016-03-15T10:38:55.357Z,1021.28
2016-03-15T10:39:55.407Z,1021.24
2016-03-15T10:40:55.457Z,1021.26
2016-03-15T10:41:55.505Z,1021.27
2016-03-15T10:42:55.571Z,1021.34
2016-03-15T10:43:55.605Z,1021.39
2016-03-15T10:44:55.654Z,1021.34
2016-03-15T10:45:55.720Z,1021.38
2016-03-15T10:46:55.754Z,1021.35
2016-03-15T10:47:55.803Z,1021.32
2016-03-15T10:48:55.869Z,1021.29
2016-03-15T10:49:55.902Z,1021.27
2016-03-15T10:50:55.967Z,1021.27
2016-03-15T10:51:56.017Z,1021.24
2016-03-15T10:52:56.067Z,1021.23
2016-03-15T10:53:56.116Z,1021.23
2016-03-15T10:54:56.165Z,1021.23
2016-03-15T10:55:56.215Z,1021.25
2016-03-15T10:56:56.281Z,1021.22
2016-03-15T10:57:56.314Z,1021.2
2016-03-15T10:58:56.364Z,1021.22
2016-03-15T10:59:56.429Z,1021.18
2016-03-15T11:00:56.478Z,1021.2
2016-03-15T11:01:56.528Z,1021.23
2016-03-15T11:02:56.577Z,1021.26
2016-03-15T11:03:56.628Z,1021.24
2016-03-15T11:04:56.678Z,1021.23
2016-03-15T11:05:56.727Z,1021.24
2016-03-15T11:06:56.777Z,1021.23
2016-03-15T11:07:56.825Z,1021.22
2016-03-15T11:08:56.875Z,1021.24
2016-03-15T11:09:56.924Z,1021.2
2016-03-15T11:10:56.974Z,1021.23
2016-03-15T11:11:57.024Z,1021.22
2016-03-15T11:12:57.089Z,1021.13
2016-03-15T11:13:57.139Z,1021.12
2016-03-15T11:14:57.188Z,1021.14
2016-03-15T11:15:57.221Z,1021.09
2016-03-15T11:16:57.271Z,1021.17
2016-03-15T11:17:57.337Z,1021.17
2016-03-15T11:18:57.386Z,1021.19
2016-03-15T11:19:57.437Z,1021.16
2016-03-15T11:20:57.485Z,1021.15
2016-03-15T11:21:57.535Z,1021.14
2016-03-15T11:22:57.585Z,1021.09
2016-03-15T11:23:57.650Z,1021.16
2016-03-15T11:24:57.684Z,1021.14
2016-03-15T11:25:57.733Z,1021.16
2016-03-15T11:26:57.798Z,1021.19
2016-03-15T11:27:57.848Z,1021.15
2016-03-15T11:28:57.898Z,1021.14
2016-03-15T11:29:57.947Z,1021.17
2016-03-15T11:30:57.997Z,1021.18
2016-03-15T11:31:58.047Z,1021.17
2016-03-15T11:32:58.096Z,1021.17
2016-03-15T11:33:58.270Z,1021.18
2016-03-15T11:34:58.195Z,1021.19
2016-03-15T11:35:58.244Z,1021.2
2016-03-15T11:36:58.295Z,1021.19
2016-03-15T11:37:58.344Z,1021.22
2016-03-15T11:38:58.409Z,1021.18
2016-03-15T11:39:58.444Z,1021.25
2016-03-15T11:40:58.508Z,1021.28
2016-03-15T11:41:58.542Z,1021.25
2016-03-15T11:42:58.607Z,1021.27
2016-03-15T11:43:58.657Z,1021.28
2016-03-15T11:44:58.691Z,1021.27
2016-03-15T11:45:58.756Z,1021.22
2016-03-15T11:46:58.805Z,1021.22
2016-03-15T11:47:58.855Z,1021.24
2016-03-15T11:48:58.904Z,1021.25
2016-03-15T11:49:58.954Z,1021.24
2016-03-15T11:50:59.004Z,1021.25
2016-03-15T11:51:59.053Z,1021.2
2016-03-15T11:52:59.104Z,1021.24
2016-03-15T11:53:59.153Z,1021.29
2016-03-15T11:54:59.217Z,1021.27
2016-03-15T11:55:59.268Z,1021.28
2016-03-15T11:56:59.301Z,1021.3
2016-03-15T11:57:59.366Z,1021.29
2016-03-15T11:58:59.400Z,1021.24
2016-03-15T11:59:59.465Z,1021.25
2016-03-15T12:00:59.515Z,1021.25
2016-03-15T12:01:59.564Z,1021.24
2016-03-15T12:02:59.614Z,1021.21
2016-03-15T12:03:59.664Z,1021.15
2016-03-15T12:04:59.713Z,1021.18
2016-03-15T12:05:59.763Z,1021.11
2016-03-15T12:06:59.813Z,1021.15
2016-03-15T12:07:59.861Z,1021.22
2016-03-15T12:08:59.928Z,1021.17